createdAt,value
2023-02-18T00:01:48.287Z,11.15
2023-02-18T00:04:16.866Z,11.23
2023-02-18T00:06:45.363Z,11.41
2023-02-18T00:09:14.329Z,11.50
2023-02-18T00:11:42.809Z,11.49
2023-02-18T00:14:15.015Z,11.32
2023-02-18T00:16:44.588Z,11.35
2023-02-18T00:19:17.310Z,11.33
2023-02-18T00:21:46.937Z,11.42
2023-02-18T00:24:17.202Z,11.56
2023-02-18T00:26:46.236Z,11.48
2023-02-18T00:29:14.874Z,11.65
2023-02-18T00:31:44.166Z,11.69
2023-02-18T00:34:13.827Z,11.42
2023-02-18T00:36:43.294Z,11.29
2023-02-18T00:39:13.277Z,11.35
2023-02-18T00:41:43.517Z,11.38
2023-02-18T00:44:13.340Z,11.25
2023-02-18T00:46:42.221Z,11.30
2023-02-18T00:49:10.923Z,11.29
2023-02-18T00:51:39.623Z,11.40
2023-02-18T00:54:10.216Z,11.34
2023-02-18T00:56:38.726Z,11.26
2023-02-18T00:59:07.345Z,11.19
2023-02-18T01:01:35.878Z,11.01
2023-02-18T01:04:05.671Z,11.08
2023-02-18T01:06:34.279Z,11.10
2023-02-18T01:09:06.174Z,11.24
2023-02-18T01:11:34.917Z,11.06
2023-02-18T01:14:04.220Z,11.02
2023-02-18T01:16:32.769Z,10.90
2023-02-18T01:19:02.030Z,11.00
2023-02-18T01:21:30.506Z,10.82
2023-02-18T01:23:59.713Z,10.89
2023-02-18T01:26:28.472Z,10.95
2023-02-18T01:28:57.065Z,10.86
2023-02-18T01:31:25.635Z,10.77
2023-02-18T01:33:54.300Z,10.84
2023-02-18T01:36:22.927Z,10.77
2023-02-18T01:38:51.481Z,10.98
2023-02-18T01:41:20.613Z,10.80
2023-02-18T01:44:22.526Z,10.75
2023-02-18T01:46:51.653Z,10.71
2023-02-18T01:49:32.702Z,10.77
2023-02-18T01:52:05.550Z,10.74
2023-02-18T01:54:40.087Z,10.61
2023-02-18T01:57:13.315Z,10.43
2023-02-18T01:59:59.638Z,10.53
2023-02-18T02:02:35.767Z,10.38
2023-02-18T02:05:04.884Z,10.27
2023-02-18T02:07:33.530Z,10.38
2023-02-18T02:10:02.794Z,10.36
2023-02-18T02:12:44.987Z,10.31
2023-02-18T02:15:58.958Z,10.34
2023-02-18T02:18:39.561Z,10.25
2023-02-18T02:21:32.957Z,10.34
2023-02-18T02:24:07.103Z,10.40
2023-02-18T02:26:44.762Z,10.26
2023-02-18T02:29:15.812Z,10.32
2023-02-18T02:32:15.333Z,10.29
2023-02-18T02:35:09.719Z,10.39
2023-02-18T02:38:00.594Z,10.30
2023-02-18T02:40:52.166Z,10.30
2023-02-18T02:43:35.977Z,10.34
2023-02-18T02:46:13.633Z,10.26
2023-02-18T02:48:50.970Z,10.35
2023-02-18T02:51:35.454Z,10.39
2023-02-18T02:54:20.297Z,10.44
2023-02-18T02:56:49.012Z,10.50
2023-02-18T02:59:25.133Z,10.37
2023-02-18T03:02:24.017Z,10.29
2023-02-18T03:05:20.751Z,10.44
2023-02-18T03:08:05.070Z,10.46
2023-02-18T03:10:59.972Z,10.30
2023-02-18T03:13:59.299Z,10.43
2023-02-18T03:16:35.502Z,10.25
2023-02-18T03:19:08.386Z,10.39
2023-02-18T03:21:50.333Z,10.40
2023-02-18T03:24:32.508Z,10.42
2023-02-18T03:27:26.553Z,10.45
2023-02-18T03:30:13.507Z,10.61
2023-02-18T03:32:44.247Z,10.45
2023-02-18T03:35:16.093Z,10.74
2023-02-18T03:38:03.233Z,10.65
2023-02-18T03:40:32.287Z,10.20
2023-02-18T03:43:02.265Z,10.48
2023-02-18T03:45:30.844Z,10.51
2023-02-18T03:47:59.467Z,10.50
2023-02-18T03:50:28.065Z,10.23
2023-02-18T03:52:56.544Z,10.18
2023-02-18T03:55:25.017Z,10.30
2023-02-18T03:57:53.532Z,10.18
2023-02-18T04:00:22.267Z,10.31
2023-02-18T04:02:50.831Z,10.22
2023-02-18T04:05:19.639Z,10.37
2023-02-18T04:07:48.092Z,10.34
2023-02-18T04:10:16.966Z,10.15
2023-02-18T04:12:45.558Z,10.33
2023-02-18T04:15:14.073Z,10.19
2023-02-18T04:17:43.953Z,10.26
2023-02-18T04:20:12.829Z,10.17
2023-02-18T04:22:42.867Z,10.07
2023-02-18T04:25:11.402Z,10.16
2023-02-18T04:27:39.915Z,10.11
2023-02-18T04:30:09.470Z,10.14
2023-02-18T04:32:38.377Z,10.13
2023-02-18T04:35:07.371Z,10.15
2023-02-18T04:37:35.869Z,10.07
2023-02-18T04:40:04.958Z,10.20
2023-02-18T04:42:33.485Z,10.22
2023-02-18T04:45:01.956Z,10.16
2023-02-18T04:47:30.722Z,10.20
2023-02-18T04:49:59.154Z,10.12
2023-02-18T04:52:27.796Z,10.03
2023-02-18T04:54:56.223Z,10.09
2023-02-18T04:57:24.655Z,10.01
2023-02-18T04:59:53.149Z,9.89
2023-02-18T05:02:21.643Z,10.25
2023-02-18T05:04:50.495Z,10.16
2023-02-18T05:07:19.323Z,10.03
2023-02-18T05:09:47.777Z,9.92
2023-02-18T05:12:16.282Z,9.91
2023-02-18T05:14:44.847Z,9.95
2023-02-18T05:17:13.251Z,9.94
2023-02-18T05:19:41.795Z,9.84
2023-02-18T05:22:10.410Z,9.63
2023-02-18T05:24:38.941Z,9.68
2023-02-18T05:27:07.367Z,9.59
2023-02-18T05:29:36.414Z,9.65
2023-02-18T05:32:05.108Z,9.70
2023-02-18T05:34:33.584Z,9.70
2023-02-18T05:37:02.192Z,9.79
2023-02-18T05:39:30.717Z,9.64
2023-02-18T05:41:59.171Z,9.62
2023-02-18T05:44:30.807Z,9.45
2023-02-18T05:47:11.511Z,9.56
2023-02-18T05:49:42.756Z,9.44
2023-02-18T05:52:12.837Z,9.38
2023-02-18T05:54:41.337Z,9.34
2023-02-18T05:57:11.257Z,9.22
2023-02-18T05:59:39.726Z,9.36
2023-02-18T06:02:08.201Z,9.39
2023-02-18T06:04:36.764Z,9.40
2023-02-18T06:07:05.211Z,9.34
2023-02-18T06:09:34.085Z,9.44
2023-02-18T06:12:02.608Z,9.49
2023-02-18T06:14:31.034Z,9.60
2023-02-18T06:16:59.521Z,9.61
2023-02-18T06:19:28.038Z,9.43
2023-02-18T06:21:56.700Z,9.68
2023-02-18T06:24:25.161Z,9.80
2023-02-18T06:26:53.840Z,9.85
2023-02-18T06:29:22.358Z,9.74
2023-02-18T06:31:51.008Z,9.74
2023-02-18T06:34:20.389Z,9.69
2023-02-18T06:36:48.795Z,9.58
2023-02-18T06:39:17.245Z,9.90
2023-02-18T06:41:45.695Z,9.87
2023-02-18T06:44:17.225Z,9.86
2023-02-18T06:46:45.800Z,9.86
2023-02-18T06:49:14.257Z,9.69
2023-02-18T06:51:42.710Z,9.71
2023-02-18T06:54:11.204Z,9.95
2023-02-18T06:56:39.662Z,9.90
2023-02-18T06:59:08.604Z,9.79
2023-02-18T07:01:37.151Z,9.98
2023-02-18T07:04:05.818Z,9.89
2023-02-18T07:06:34.288Z,9.80
2023-02-18T07:09:02.808Z,9.94
2023-02-18T07:11:32.141Z,9.93
2023-02-18T07:14:00.763Z,10.14
2023-02-18T07:16:29.351Z,10.25
2023-02-18T07:18:57.830Z,10.35
2023-02-18T07:21:26.610Z,10.27
2023-02-18T07:23:55.321Z,10.01
2023-02-18T07:26:23.789Z,10.04
2023-02-18T07:28:52.288Z,10.20
2023-02-18T07:31:20.919Z,10.06
2023-02-18T07:33:49.416Z,10.13
2023-02-18T07:36:17.875Z,10.15
2023-02-18T07:38:47.437Z,10.25
2023-02-18T07:41:19.796Z,10.21
2023-02-18T07:43:48.505Z,9.99
2023-02-18T07:46:17.606Z,10.18
2023-02-18T07:48:46.216Z,10.21
2023-02-18T07:51:15.035Z,10.39
2023-02-18T07:53:43.658Z,10.41
2023-02-18T07:56:12.254Z,10.46
2023-02-18T07:58:40.970Z,10.40
2023-02-18T08:01:12.463Z,10.61
2023-02-18T08:03:42.054Z,10.47
2023-02-18T08:06:32.044Z,10.57
2023-02-18T08:09:00.670Z,10.59
2023-02-18T08:11:29.202Z,10.54
2023-02-18T08:13:57.942Z,10.43
2023-02-18T08:16:26.968Z,10.56
2023-02-18T08:18:56.269Z,10.72
2023-02-18T08:21:25.984Z,10.71
2023-02-18T08:23:54.745Z,10.77
2023-02-18T08:26:23.203Z,11.12
2023-02-18T08:28:51.682Z,11.17
2023-02-18T08:31:23.991Z,11.13
2023-02-18T08:33:55.141Z,11.09
2023-02-18T08:36:24.054Z,11.09
2023-02-18T08:38:52.665Z,11.41
2023-02-18T08:41:21.642Z,11.63
2023-02-18T08:43:51.062Z,11.61
2023-02-18T08:46:31.567Z,11.62
2023-02-18T08:49:06.159Z,11.76
2023-02-18T08:51:35.000Z,11.74
2023-02-18T08:54:03.643Z,11.80
2023-02-18T08:56:33.008Z,12.07
2023-02-18T08:59:01.486Z,12.29
2023-02-18T09:01:30.115Z,12.38
2023-02-18T09:03:58.805Z,12.19
2023-02-18T09:06:27.461Z,12.37
2023-02-18T09:08:56.065Z,12.52
2023-02-18T09:11:24.597Z,12.47
2023-02-18T09:13:53.544Z,12.36
2023-02-18T09:16:22.050Z,12.36
2023-02-18T09:18:50.628Z,12.67
2023-02-18T09:21:21.025Z,12.65
2023-02-18T09:23:51.134Z,13.00
2023-02-18T09:26:23.291Z,12.94
2023-02-18T09:28:54.259Z,12.89
2023-02-18T09:31:26.660Z,12.83
2023-02-18T09:34:03.365Z,12.60
2023-02-18T09:36:33.222Z,12.80
2023-02-18T09:39:03.039Z,13.16
2023-02-18T09:41:59.518Z,13.60
2023-02-18T09:44:51.526Z,13.72
2023-02-18T09:47:33.322Z,13.32
2023-02-18T09:50:26.622Z,13.38
2023-02-18T09:52:56.235Z,13.97
2023-02-18T09:55:39.223Z,14.06
2023-02-18T09:58:12.720Z,13.50
2023-02-18T10:00:44.652Z,13.70
2023-02-18T10:03:22.875Z,13.89
2023-02-18T10:06:24.517Z,13.84
2023-02-18T10:08:54.783Z,14.27
2023-02-18T10:11:38.361Z,13.94
2023-02-18T10:14:15.217Z,14.06
2023-02-18T10:16:45.509Z,14.22
2023-02-18T10:19:21.585Z,14.54
2023-02-18T10:21:52.122Z,14.05
2023-02-18T10:24:50.414Z,14.01
2023-02-18T10:27:31.147Z,14.40
2023-02-18T10:30:29.061Z,14.35
2023-02-18T10:33:39.493Z,14.80
2023-02-18T10:36:32.665Z,15.08
2023-02-18T10:39:33.206Z,15.03
2023-02-18T10:42:07.618Z,14.61
2023-02-18T10:45:08.926Z,14.29
2023-02-18T10:47:45.219Z,14.15
2023-02-18T10:50:31.016Z,14.19
2023-02-18T10:53:11.555Z,14.18
2023-02-18T10:55:43.785Z,14.32
2023-02-18T10:58:37.133Z,14.21
2023-02-18T11:01:13.698Z,13.77
2023-02-18T11:03:49.146Z,13.56
2023-02-18T11:06:29.828Z,13.31
2023-02-18T11:08:59.563Z,13.63
2023-02-18T11:11:39.817Z,13.68
2023-02-18T11:14:13.909Z,13.36
2023-02-18T11:16:45.493Z,13.09
2023-02-18T11:19:35.355Z,12.86
2023-02-18T11:22:25.283Z,13.02
2023-02-18T11:24:59.711Z,12.77
2023-02-18T11:27:30.950Z,12.77
2023-02-18T11:30:16.612Z,12.80
2023-02-18T11:32:46.804Z,12.65
2023-02-18T11:35:25.305Z,12.57
2023-02-18T11:37:57.613Z,12.69
2023-02-18T11:40:33.353Z,12.42
2023-02-18T11:43:14.900Z,12.35
2023-02-18T11:45:44.255Z,12.33
2023-02-18T11:48:20.480Z,12.44
2023-02-18T11:50:52.539Z,12.56
2023-02-18T11:53:24.133Z,12.30
2023-02-18T11:55:58.778Z,12.26
2023-02-18T11:58:33.332Z,11.91
2023-02-18T12:01:03.756Z,11.44
2023-02-18T12:03:57.516Z,12.04
2023-02-18T12:06:37.647Z,12.21
2023-02-18T12:09:09.103Z,11.71
2023-02-18T12:11:43.047Z,11.46
2023-02-18T12:14:18.773Z,11.51
2023-02-18T12:16:56.167Z,11.44
2023-02-18T12:19:48.995Z,11.31
2023-02-18T12:22:43.996Z,11.43
2023-02-18T12:25:18.108Z,11.30
2023-02-18T12:27:54.596Z,11.16
2023-02-18T12:30:55.826Z,10.98
2023-02-18T12:34:16.583Z,11.04
2023-02-18T12:37:09.618Z,11.00
2023-02-18T12:40:03.731Z,10.78
2023-02-18T12:42:35.138Z,10.51
2023-02-18T12:45:25.600Z,10.19
2023-02-18T12:48:13.847Z,10.18
2023-02-18T12:51:05.459Z,10.02
2023-02-18T12:53:52.742Z,10.08
2023-02-18T12:56:37.527Z,10.03
2023-02-18T12:59:29.037Z,10.10
2023-02-18T13:02:24.078Z,9.94
2023-02-18T13:05:19.490Z,9.96
2023-02-18T13:08:08.027Z,10.10
2023-02-18T13:10:54.718Z,9.75
2023-02-18T13:13:30.708Z,10.06
2023-02-18T13:16:09.573Z,10.19
2023-02-18T13:19:00.889Z,9.72
2023-02-18T13:21:31.916Z,9.94
2023-02-18T13:24:23.403Z,9.96
2023-02-18T13:26:59.826Z,9.88
2023-02-18T13:30:10.184Z,9.95
2023-02-18T13:32:51.248Z,10.14
2023-02-18T13:35:30.411Z,10.09
2023-02-18T13:38:34.815Z,9.92
2023-02-18T13:41:05.688Z,9.98
2023-02-18T13:43:36.202Z,9.92
2023-02-18T13:46:07.619Z,10.02
2023-02-18T13:48:47.999Z,10.17
2023-02-18T13:51:29.578Z,10.30
2023-02-18T13:54:07.485Z,10.14
2023-02-18T13:56:41.440Z,9.88
2023-02-18T13:59:16.624Z,9.95
2023-02-18T14:01:48.277Z,10.21
2023-02-18T14:04:36.996Z,10.25
2023-02-18T14:07:33.467Z,9.97
2023-02-18T14:10:17.644Z,10.17
2023-02-18T14:12:58.305Z,10.18
2023-02-18T14:15:26.934Z,10.32
2023-02-18T14:18:12.854Z,10.01
2023-02-18T14:20:41.388Z,10.20
2023-02-18T14:23:12.614Z,10.24
2023-02-18T14:25:43.436Z,10.35
2023-02-18T14:28:36.559Z,10.53
2023-02-18T14:31:14.476Z,10.67
2023-02-18T14:33:55.286Z,10.52
2023-02-18T14:36:37.242Z,10.51
2023-02-18T14:39:30.205Z,10.68
2023-02-18T14:42:18.347Z,10.87
2023-02-18T14:44:55.799Z,10.82
2023-02-18T14:47:33.310Z,10.86
2023-02-18T14:50:05.908Z,10.89
2023-02-18T14:52:45.851Z,10.70
2023-02-18T14:55:39.369Z,10.64
2023-02-18T14:58:31.501Z,10.70
2023-02-18T15:01:26.718Z,10.63
2023-02-18T15:03:56.790Z,10.74
2023-02-18T15:06:37.150Z,10.85
2023-02-18T15:09:20.155Z,10.78
2023-02-18T15:11:56.640Z,10.53
2023-02-18T15:14:40.790Z,10.19
2023-02-18T15:17:25.126Z,10.11
2023-02-18T15:20:01.027Z,10.13
2023-02-18T15:22:34.339Z,10.03
2023-02-18T15:25:03.705Z,10.08
2023-02-18T15:27:37.417Z,10.07
2023-02-18T15:30:29.199Z,10.04
2023-02-18T15:33:00.122Z,10.18
2023-02-18T15:35:33.347Z,10.06
2023-02-18T15:38:02.455Z,10.06
2023-02-18T15:40:37.320Z,9.99
2023-02-18T15:43:07.320Z,9.83
2023-02-18T15:45:42.556Z,9.80
2023-02-18T15:48:22.889Z,9.93
2023-02-18T15:51:02.734Z,9.75
2023-02-18T15:53:40.697Z,9.77
2023-02-18T15:56:21.296Z,9.73
2023-02-18T15:58:49.855Z,9.59
2023-02-18T16:01:30.465Z,9.50
2023-02-18T16:03:59.483Z,9.44
2023-02-18T16:06:29.667Z,9.51
2023-02-18T16:09:08.224Z,9.66
2023-02-18T16:11:44.097Z,9.49
2023-02-18T16:14:27.847Z,9.62
2023-02-18T16:17:21.427Z,9.63
2023-02-18T16:20:04.721Z,9.42
2023-02-18T16:22:39.690Z,9.39
2023-02-18T16:25:21.403Z,9.48
2023-02-18T16:28:04.211Z,9.55
2023-02-18T16:30:34.558Z,9.54
2023-02-18T16:33:03.772Z,9.30
2023-02-18T16:35:47.469Z,9.13
2023-02-18T16:38:24.593Z,8.87
2023-02-18T16:40:54.766Z,8.81
2023-02-18T16:43:27.238Z,8.73
2023-02-18T16:45:58.073Z,8.77
2023-02-18T16:48:40.473Z,8.92
2023-02-18T16:51:24.583Z,9.04
2023-02-18T16:53:53.086Z,8.93
2023-02-18T16:56:25.921Z,9.02
2023-02-18T16:58:54.749Z,9.26
2023-02-18T17:01:29.159Z,9.13
2023-02-18T17:03:59.412Z,9.19
2023-02-18T17:06:29.329Z,9.23
2023-02-18T17:08:57.825Z,9.20
2023-02-18T17:11:32.272Z,9.15
2023-02-18T17:14:05.165Z,9.03
2023-02-18T17:16:33.918Z,9.17
2023-02-18T17:19:02.475Z,9.07
2023-02-18T17:21:31.217Z,9.05
2023-02-18T17:23:59.738Z,9.30
2023-02-18T17:26:30.537Z,9.29
2023-02-18T17:29:03.941Z,9.01
2023-02-18T17:31:38.327Z,9.05
2023-02-18T17:34:09.972Z,8.82
2023-02-18T17:36:39.873Z,8.79
2023-02-18T17:39:14.687Z,8.86
2023-02-18T17:41:43.799Z,8.74
2023-02-18T17:44:23.866Z,8.74
2023-02-18T17:46:53.205Z,8.57
2023-02-18T17:49:22.871Z,8.56
2023-02-18T17:51:52.435Z,8.74
2023-02-18T17:54:22.909Z,8.54
2023-02-18T17:56:51.489Z,8.65
2023-02-18T17:59:20.108Z,8.72
2023-02-18T18:01:48.608Z,8.52
2023-02-18T18:04:19.553Z,8.64
2023-02-18T18:06:50.043Z,8.51
2023-02-18T18:09:18.669Z,8.64
2023-02-18T18:11:47.468Z,8.62
2023-02-18T18:14:15.962Z,8.67
2023-02-18T18:16:44.464Z,8.55
2023-02-18T18:19:13.099Z,8.52
2023-02-18T18:21:41.877Z,8.71
2023-02-18T18:24:12.749Z,8.69
2023-02-18T18:26:41.297Z,8.54
2023-02-18T18:29:09.908Z,8.51
2023-02-18T18:31:38.709Z,8.37
2023-02-18T18:34:07.372Z,8.44
2023-02-18T18:36:36.147Z,8.44
2023-02-18T18:39:04.648Z,8.33
2023-02-18T18:41:33.057Z,8.14
2023-02-18T18:44:02.407Z,8.22
2023-02-18T18:46:30.947Z,8.12
2023-02-18T18:48:59.369Z,8.18
2023-02-18T18:51:33.053Z,8.04
2023-02-18T18:54:01.608Z,8.14
2023-02-18T18:56:30.064Z,8.36
2023-02-18T18:58:58.751Z,8.32
2023-02-18T19:01:29.057Z,8.49
2023-02-18T19:03:57.896Z,8.56
2023-02-18T19:06:26.424Z,8.44
2023-02-18T19:08:54.835Z,8.33
2023-02-18T19:11:23.308Z,8.22
2023-02-18T19:13:52.474Z,8.28
2023-02-18T19:16:36.427Z,8.32
2023-02-18T19:19:04.964Z,8.21
2023-02-18T19:21:33.715Z,8.13
2023-02-18T19:24:02.472Z,8.14
2023-02-18T19:26:31.575Z,8.27
2023-02-18T19:29:00.272Z,8.21
2023-02-18T19:31:28.859Z,8.18
2023-02-18T19:33:57.547Z,8.23
2023-02-18T19:36:26.006Z,8.37
2023-02-18T19:38:54.622Z,8.37
2023-02-18T19:41:23.194Z,8.40
2023-02-18T19:43:51.616Z,8.45
2023-02-18T19:46:20.091Z,8.26
2023-02-18T19:48:52.581Z,8.40
2023-02-18T19:51:25.133Z,8.30
2023-02-18T19:53:54.885Z,8.28
2023-02-18T19:56:24.624Z,8.28
2023-02-18T19:58:56.854Z,8.28
2023-02-18T20:01:25.411Z,8.47
2023-02-18T20:03:53.922Z,8.34
2023-02-18T20:06:22.628Z,8.48
2023-02-18T20:08:54.050Z,8.51
2023-02-18T20:11:23.582Z,8.40
2023-02-18T20:13:52.048Z,8.39
2023-02-18T20:16:20.493Z,8.51
2023-02-18T20:18:49.450Z,8.40
2023-02-18T20:21:17.882Z,8.58
2023-02-18T20:23:46.574Z,8.45
2023-02-18T20:26:15.360Z,8.28
2023-02-18T20:28:44.702Z,8.18
2023-02-18T20:31:16.662Z,8.12
2023-02-18T20:33:45.664Z,8.04
2023-02-18T20:36:14.582Z,7.89
2023-02-18T20:38:43.192Z,7.88
2023-02-18T20:41:14.747Z,8.02
2023-02-18T20:43:43.571Z,7.83
2023-02-18T20:46:15.085Z,7.74
2023-02-18T20:48:44.334Z,7.77
2023-02-18T20:51:16.570Z,7.79
2023-02-18T20:53:46.129Z,7.64
2023-02-18T20:56:15.573Z,7.80
2023-02-18T20:58:44.595Z,7.74
2023-02-18T21:01:15.955Z,7.85
2023-02-18T21:03:46.414Z,7.72
2023-02-18T21:06:18.082Z,7.81
2023-02-18T21:08:48.461Z,7.78
2023-02-18T21:11:22.665Z,7.77
2023-02-18T21:13:53.238Z,7.69
2023-02-18T21:16:23.502Z,7.69
2023-02-18T21:18:52.018Z,7.66
2023-02-18T21:21:23.898Z,7.75
2023-02-18T21:23:53.269Z,7.82
2023-02-18T21:26:24.197Z,7.67
2023-02-18T21:28:56.105Z,7.50
2023-02-18T21:31:27.831Z,7.47
2023-02-18T21:33:57.254Z,7.37
2023-02-18T21:36:26.580Z,7.34
2023-02-18T21:38:57.505Z,7.22
2023-02-18T21:41:27.074Z,7.32
2023-02-18T21:43:55.724Z,7.30
2023-02-18T21:46:27.583Z,7.42
2023-02-18T21:49:03.137Z,7.35
2023-02-18T21:51:56.594Z,7.51
2023-02-18T21:54:31.779Z,7.56
2023-02-18T21:57:03.069Z,7.55
2023-02-18T21:59:33.493Z,7.73
2023-02-18T22:02:04.382Z,7.54
2023-02-18T22:04:34.780Z,7.41
2023-02-18T22:07:03.880Z,7.66
2023-02-18T22:09:32.424Z,7.51
2023-02-18T22:12:01.050Z,7.59
2023-02-18T22:14:29.610Z,7.35
2023-02-18T22:16:58.218Z,7.39
2023-02-18T22:19:26.675Z,7.44
2023-02-18T22:21:56.007Z,7.43
2023-02-18T22:24:24.786Z,7.50
2023-02-18T22:26:53.270Z,7.43
2023-02-18T22:29:22.460Z,7.40
2023-02-18T22:31:53.584Z,7.55
2023-02-18T22:34:23.201Z,7.59
2023-02-18T22:36:51.694Z,7.56
2023-02-18T22:39:20.214Z,7.47
2023-02-18T22:41:49.655Z,7.66
2023-02-18T22:44:19.540Z,7.79
2023-02-18T22:46:48.167Z,7.93
2023-02-18T22:49:16.781Z,7.99
2023-02-18T22:51:45.364Z,8.00
2023-02-18T22:54:16.350Z,7.90
2023-02-18T22:56:47.136Z,7.96
2023-02-18T22:59:20.112Z,7.99
2023-02-18T23:01:49.941Z,7.74
2023-02-18T23:04:20.255Z,7.86
2023-02-18T23:06:50.220Z,7.99
2023-02-18T23:09:24.472Z,7.95
2023-02-18T23:11:56.627Z,7.92
2023-02-18T23:14:28.492Z,7.79
2023-02-18T23:17:15.078Z,7.86
2023-02-18T23:19:51.865Z,7.96
2023-02-18T23:22:29.451Z,7.86
2023-02-18T23:24:58.483Z,7.87
2023-02-18T23:27:27.776Z,7.97
2023-02-18T23:29:56.791Z,8.16
2023-02-18T23:32:28.050Z,8.08
2023-02-18T23:34:56.749Z,8.18
2023-02-18T23:37:45.066Z,8.00
2023-02-18T23:40:15.087Z,7.86
2023-02-18T23:42:43.558Z,7.93
2023-02-18T23:45:12.017Z,8.13
2023-02-18T23:47:40.494Z,7.89
2023-02-18T23:50:09.196Z,7.85
2023-02-18T23:52:37.641Z,7.86
2023-02-18T23:55:07.786Z,7.98
2023-02-18T23:57:36.722Z,7.98
